sensor_id;sensor_type;location;lat;lon;timestamp;P1;durP1;ratioP1;P2;durP2;ratioP2
46589;SDS011;32313;48.722;9.362;2022-10-20T00:00:55;35.50;;;26.67;;
46589;SDS011;32313;48.722;9.362;2022-10-20T00:03:21;33.63;;;27.80;;
46589;SDS011;32313;48.722;9.362;2022-10-20T00:05:47;40.87;;;31.37;;
46589;SDS011;32313;48.722;9.362;2022-10-20T00:08:13;41.97;;;29.57;;
46589;SDS011;32313;48.722;9.362;2022-10-20T00:10:39;39.43;;;27.63;;
46589;SDS011;32313;48.722;9.362;2022-10-20T00:13:05;32.20;;;26.00;;
46589;SDS011;32313;48.722;9.362;2022-10-20T00:15:30;37.43;;;27.70;;
46589;SDS011;32313;48.722;9.362;2022-10-20T00:17:56;33.93;;;25.73;;
46589;SDS011;32313;48.722;9.362;2022-10-20T00:20:22;37.23;;;28.23;;
46589;SDS011;32313;48.722;9.362;2022-10-20T00:22:48;39.90;;;28.37;;
46589;SDS011;32313;48.722;9.362;2022-10-20T00:25:14;33.93;;;27.47;;
46589;SDS011;32313;48.722;9.362;2022-10-20T00:27:39;30.07;;;23.57;;
46589;SDS011;32313;48.722;9.362;2022-10-20T00:30:05;36.60;;;27.03;;
46589;SDS011;32313;48.722;9.362;2022-10-20T00:32:31;34.50;;;26.63;;
46589;SDS011;32313;48.722;9.362;2022-10-20T00:34:57;35.77;;;26.90;;
46589;SDS011;32313;48.722;9.362;2022-10-20T00:37:22;37.43;;;27.87;;
46589;SDS011;32313;48.722;9.362;2022-10-20T00:39:48;32.57;;;24.87;;
46589;SDS011;32313;48.722;9.362;2022-10-20T00:42:15;34.23;;;26.97;;
46589;SDS011;32313;48.722;9.362;2022-10-20T00:44:55;31.77;;;25.87;;
46589;SDS011;32313;48.722;9.362;2022-10-20T00:50:10;33.77;;;26.07;;
46589;SDS011;32313;48.722;9.362;2022-10-20T00:52:41;39.47;;;29.73;;
46589;SDS011;32313;48.722;9.362;2022-10-20T00:55:08;40.50;;;29.47;;
46589;SDS011;32313;48.722;9.362;2022-10-20T00:57:36;33.30;;;27.63;;
46589;SDS011;32313;48.722;9.362;2022-10-20T01:00:03;32.80;;;26.43;;
46589;SDS011;32313;48.722;9.362;2022-10-20T01:02:30;41.60;;;31.23;;
46589;SDS011;32313;48.722;9.362;2022-10-20T01:04:56;40.93;;;29.90;;
46589;SDS011;32313;48.722;9.362;2022-10-20T01:07:22;38.50;;;28.00;;
46589;SDS011;32313;48.722;9.362;2022-10-20T01:09:48;34.13;;;26.73;;
46589;SDS011;32313;48.722;9.362;2022-10-20T01:12:57;32.97;;;26.40;;
46589;SDS011;32313;48.722;9.362;2022-10-20T01:16:25;41.97;;;28.37;;
46589;SDS011;32313;48.722;9.362;2022-10-20T01:18:32;44.33;;;29.20;;
46589;SDS011;32313;48.722;9.362;2022-10-20T01:21:18;43.07;;;29.50;;
46589;SDS011;32313;48.722;9.362;2022-10-20T01:32:43;43.57;;;28.93;;
46589;SDS011;32313;48.722;9.362;2022-10-20T01:35:30;46.43;;;28.27;;
46589;SDS011;32313;48.722;9.362;2022-10-20T01:38:22;42.63;;;30.37;;
46589;SDS011;32313;48.722;9.362;2022-10-20T01:41:07;42.43;;;27.73;;
46589;SDS011;32313;48.722;9.362;2022-10-20T01:43:35;37.37;;;27.73;;
46589;SDS011;32313;48.722;9.362;2022-10-20T01:46:03;48.90;;;30.43;;
46589;SDS011;32313;48.722;9.362;2022-10-20T01:48:31;43.97;;;27.40;;
46589;SDS011;32313;48.722;9.362;2022-10-20T01:50:59;48.83;;;32.20;;
46589;SDS011;32313;48.722;9.362;2022-10-20T01:53:26;49.70;;;33.03;;
46589;SDS011;32313;48.722;9.362;2022-10-20T01:55:52;48.43;;;30.20;;
46589;SDS011;32313;48.722;9.362;2022-10-20T02:01:27;46.47;;;28.47;;
46589;SDS011;32313;48.722;9.362;2022-10-20T02:04:23;39.00;;;27.20;;
46589;SDS011;32313;48.722;9.362;2022-10-20T02:07:00;45.83;;;31.13;;
46589;SDS011;32313;48.722;9.362;2022-10-20T02:09:39;44.13;;;29.63;;
46589;SDS011;32313;48.722;9.362;2022-10-20T02:12:11;44.00;;;28.27;;
46589;SDS011;32313;48.722;9.362;2022-10-20T02:14:41;45.43;;;30.60;;
46589;SDS011;32313;48.722;9.362;2022-10-20T02:17:10;38.77;;;28.50;;
46589;SDS011;32313;48.722;9.362;2022-10-20T02:19:39;46.83;;;31.60;;
46589;SDS011;32313;48.722;9.362;2022-10-20T02:22:07;44.17;;;30.67;;
46589;SDS011;32313;48.722;9.362;2022-10-20T02:24:36;45.43;;;29.23;;
46589;SDS011;32313;48.722;9.362;2022-10-20T02:27:38;42.20;;;28.20;;
46589;SDS011;32313;48.722;9.362;2022-10-20T02:30:02;41.33;;;28.07;;
46589;SDS011;32313;48.722;9.362;2022-10-20T02:32:36;42.03;;;29.07;;
46589;SDS011;32313;48.722;9.362;2022-10-20T02:35:14;46.80;;;28.77;;
46589;SDS011;32313;48.722;9.362;2022-10-20T02:37:43;38.53;;;26.53;;
46589;SDS011;32313;48.722;9.362;2022-10-20T02:40:08;50.23;;;31.50;;
46589;SDS011;32313;48.722;9.362;2022-10-20T02:42:35;44.27;;;29.87;;
46589;SDS011;32313;48.722;9.362;2022-10-20T02:45:01;52.83;;;32.00;;
46589;SDS011;32313;48.722;9.362;2022-10-20T02:47:27;46.60;;;29.90;;
46589;SDS011;32313;48.722;9.362;2022-10-20T02:49:53;47.73;;;30.17;;
46589;SDS011;32313;48.722;9.362;2022-10-20T02:52:18;41.90;;;29.40;;
46589;SDS011;32313;48.722;9.362;2022-10-20T02:54:44;48.10;;;30.50;;
46589;SDS011;32313;48.722;9.362;2022-10-20T02:57:10;45.00;;;29.13;;
46589;SDS011;32313;48.722;9.362;2022-10-20T02:59:35;47.10;;;29.97;;
46589;SDS011;32313;48.722;9.362;2022-10-20T03:02:01;41.93;;;28.97;;
46589;SDS011;32313;48.722;9.362;2022-10-20T03:04:27;46.53;;;30.37;;
46589;SDS011;32313;48.722;9.362;2022-10-20T03:06:53;43.63;;;29.80;;
46589;SDS011;32313;48.722;9.362;2022-10-20T03:09:18;50.33;;;30.80;;
46589;SDS011;32313;48.722;9.362;2022-10-20T03:11:44;37.37;;;25.40;;
46589;SDS011;32313;48.722;9.362;2022-10-20T03:14:10;44.67;;;29.53;;
46589;SDS011;32313;48.722;9.362;2022-10-20T03:16:36;41.17;;;28.40;;
46589;SDS011;32313;48.722;9.362;2022-10-20T03:19:02;47.73;;;28.60;;
46589;SDS011;32313;48.722;9.362;2022-10-20T03:21:27;40.60;;;27.27;;
46589;SDS011;32313;48.722;9.362;2022-10-20T03:23:53;40.73;;;27.90;;
46589;SDS011;32313;48.722;9.362;2022-10-20T03:26:19;45.93;;;29.27;;
46589;SDS011;32313;48.722;9.362;2022-10-20T03:28:45;47.07;;;31.00;;
46589;SDS011;32313;48.722;9.362;2022-10-20T03:31:11;51.13;;;31.33;;
46589;SDS011;32313;48.722;9.362;2022-10-20T03:33:36;47.67;;;29.80;;
46589;SDS011;32313;48.722;9.362;2022-10-20T03:36:02;48.23;;;30.67;;
46589;SDS011;32313;48.722;9.362;2022-10-20T03:38:28;42.37;;;28.67;;
46589;SDS011;32313;48.722;9.362;2022-10-20T03:40:54;46.60;;;29.93;;
46589;SDS011;32313;48.722;9.362;2022-10-20T03:43:20;51.57;;;33.87;;
46589;SDS011;32313;48.722;9.362;2022-10-20T03:45:45;44.33;;;31.43;;
46589;SDS011;32313;48.722;9.362;2022-10-20T03:48:11;47.23;;;30.13;;
46589;SDS011;32313;48.722;9.362;2022-10-20T03:50:38;50.87;;;31.57;;
46589;SDS011;32313;48.722;9.362;2022-10-20T03:53:04;42.33;;;29.80;;
46589;SDS011;32313;48.722;9.362;2022-10-20T03:55:30;41.83;;;30.23;;
46589;SDS011;32313;48.722;9.362;2022-10-20T03:57:56;45.07;;;30.53;;
46589;SDS011;32313;48.722;9.362;2022-10-20T04:00:22;45.90;;;31.00;;
46589;SDS011;32313;48.722;9.362;2022-10-20T04:02:48;45.57;;;30.10;;
46589;SDS011;32313;48.722;9.362;2022-10-20T04:05:15;41.80;;;28.83;;
46589;SDS011;32313;48.722;9.362;2022-10-20T04:07:43;44.30;;;29.83;;
46589;SDS011;32313;48.722;9.362;2022-10-20T04:10:09;42.20;;;27.87;;
46589;SDS011;32313;48.722;9.362;2022-10-20T04:12:35;44.83;;;30.63;;
46589;SDS011;32313;48.722;9.362;2022-10-20T04:15:01;49.10;;;30.67;;
46589;SDS011;32313;48.722;9.362;2022-10-20T04:17:28;47.07;;;29.67;;
46589;SDS011;32313;48.722;9.362;2022-10-20T04:19:54;47.60;;;30.43;;
46589;SDS011;32313;48.722;9.362;2022-10-20T04:22:19;46.13;;;30.10;;
46589;SDS011;32313;48.722;9.362;2022-10-20T04:24:45;53.70;;;33.43;;
46589;SDS011;32313;48.722;9.362;2022-10-20T04:27:11;45.47;;;30.63;;
46589;SDS011;32313;48.722;9.362;2022-10-20T04:29:36;53.10;;;33.00;;
46589;SDS011;32313;48.722;9.362;2022-10-20T04:32:02;49.00;;;30.90;;
46589;SDS011;32313;48.722;9.362;2022-10-20T04:34:28;55.90;;;34.17;;
46589;SDS011;32313;48.722;9.362;2022-10-20T04:36:54;66.67;;;36.10;;
46589;SDS011;32313;48.722;9.362;2022-10-20T04:39:19;57.00;;;32.87;;
46589;SDS011;32313;48.722;9.362;2022-10-20T04:41:45;53.77;;;32.50;;
46589;SDS011;32313;48.722;9.362;2022-10-20T04:44:11;63.27;;;35.43;;
46589;SDS011;32313;48.722;9.362;2022-10-20T04:46:36;59.50;;;34.63;;
46589;SDS011;32313;48.722;9.362;2022-10-20T04:49:03;67.47;;;35.77;;
46589;SDS011;32313;48.722;9.362;2022-10-20T04:51:28;58.27;;;34.53;;
46589;SDS011;32313;48.722;9.362;2022-10-20T04:53:54;58.20;;;34.93;;
46589;SDS011;32313;48.722;9.362;2022-10-20T04:56:20;55.67;;;34.90;;
46589;SDS011;32313;48.722;9.362;2022-10-20T04:58:51;62.83;;;37.37;;
46589;SDS011;32313;48.722;9.362;2022-10-20T05:01:18;64.47;;;36.30;;
46589;SDS011;32313;48.722;9.362;2022-10-20T05:03:45;65.43;;;37.50;;
46589;SDS011;32313;48.722;9.362;2022-10-20T05:06:21;64.90;;;36.70;;
46589;SDS011;32313;48.722;9.362;2022-10-20T05:08:49;69.67;;;38.47;;
46589;SDS011;32313;48.722;9.362;2022-10-20T05:11:17;68.73;;;39.10;;
46589;SDS011;32313;48.722;9.362;2022-10-20T05:13:44;56.27;;;33.50;;
46589;SDS011;32313;48.722;9.362;2022-10-20T05:16:10;56.03;;;35.03;;
46589;SDS011;32313;48.722;9.362;2022-10-20T05:18:36;62.07;;;36.67;;
46589;SDS011;32313;48.722;9.362;2022-10-20T05:21:09;66.93;;;36.97;;
46589;SDS011;32313;48.722;9.362;2022-10-20T05:23:40;49.60;;;31.33;;
46589;SDS011;32313;48.722;9.362;2022-10-20T05:26:07;59.77;;;36.37;;
46589;SDS011;32313;48.722;9.362;2022-10-20T05:28:36;70.93;;;37.37;;
46589;SDS011;32313;48.722;9.362;2022-10-20T05:31:02;57.80;;;35.07;;
46589;SDS011;32313;48.722;9.362;2022-10-20T05:33:30;62.97;;;35.47;;
46589;SDS011;32313;48.722;9.362;2022-10-20T05:35:55;65.50;;;37.33;;
46589;SDS011;32313;48.722;9.362;2022-10-20T05:38:21;65.50;;;35.87;;
46589;SDS011;32313;48.722;9.362;2022-10-20T05:40:47;63.77;;;36.80;;
46589;SDS011;32313;48.722;9.362;2022-10-20T05:43:12;60.73;;;34.23;;
46589;SDS011;32313;48.722;9.362;2022-10-20T05:45:38;58.00;;;35.07;;
46589;SDS011;32313;48.722;9.362;2022-10-20T05:48:04;64.90;;;36.20;;
46589;SDS011;32313;48.722;9.362;2022-10-20T05:50:30;54.23;;;34.17;;
46589;SDS011;32313;48.722;9.362;2022-10-20T05:52:56;53.80;;;31.97;;
46589;SDS011;32313;48.722;9.362;2022-10-20T05:55:22;52.93;;;34.23;;
46589;SDS011;32313;48.722;9.362;2022-10-20T05:57:49;53.90;;;34.40;;
46589;SDS011;32313;48.722;9.362;2022-10-20T06:00:15;52.60;;;34.93;;
46589;SDS011;32313;48.722;9.362;2022-10-20T06:02:43;58.17;;;37.10;;
46589;SDS011;32313;48.722;9.362;2022-10-20T06:05:08;60.63;;;35.97;;
46589;SDS011;32313;48.722;9.362;2022-10-20T06:07:34;49.23;;;33.57;;
46589;SDS011;32313;48.722;9.362;2022-10-20T06:10:00;45.00;;;32.87;;
46589;SDS011;32313;48.722;9.362;2022-10-20T06:12:26;49.17;;;33.67;;
46589;SDS011;32313;48.722;9.362;2022-10-20T06:14:52;51.63;;;34.63;;
46589;SDS011;32313;48.722;9.362;2022-10-20T06:17:17;52.73;;;34.50;;
46589;SDS011;32313;48.722;9.362;2022-10-20T06:19:43;53.43;;;34.17;;
46589;SDS011;32313;48.722;9.362;2022-10-20T06:22:09;55.73;;;34.57;;
46589;SDS011;32313;48.722;9.362;2022-10-20T06:24:34;52.90;;;33.47;;
46589;SDS011;32313;48.722;9.362;2022-10-20T06:27:00;52.87;;;33.30;;
46589;SDS011;32313;48.722;9.362;2022-10-20T06:29:26;50.80;;;34.90;;
46589;SDS011;32313;48.722;9.362;2022-10-20T06:31:51;48.40;;;32.73;;
46589;SDS011;32313;48.722;9.362;2022-10-20T06:34:21;46.57;;;32.47;;
46589;SDS011;32313;48.722;9.362;2022-10-20T06:36:48;46.43;;;32.00;;
46589;SDS011;32313;48.722;9.362;2022-10-20T06:39:16;41.27;;;30.13;;
46589;SDS011;32313;48.722;9.362;2022-10-20T06:41:47;45.50;;;31.70;;
46589;SDS011;32313;48.722;9.362;2022-10-20T06:44:17;41.50;;;30.40;;
46589;SDS011;32313;48.722;9.362;2022-10-20T06:46:44;38.73;;;29.83;;
46589;SDS011;32313;48.722;9.362;2022-10-20T06:49:12;42.80;;;29.90;;
46589;SDS011;32313;48.722;9.362;2022-10-20T06:51:39;39.23;;;30.70;;
46589;SDS011;32313;48.722;9.362;2022-10-20T06:54:05;42.93;;;29.73;;
46589;SDS011;32313;48.722;9.362;2022-10-20T06:56:32;38.57;;;29.60;;
46589;SDS011;32313;48.722;9.362;2022-10-20T06:58:59;37.33;;;27.30;;
46589;SDS011;32313;48.722;9.362;2022-10-20T07:01:26;38.57;;;30.17;;
46589;SDS011;32313;48.722;9.362;2022-10-20T07:03:55;37.07;;;27.97;;
46589;SDS011;32313;48.722;9.362;2022-10-20T07:06:32;33.67;;;27.40;;
46589;SDS011;32313;48.722;9.362;2022-10-20T07:08:59;32.90;;;26.03;;
46589;SDS011;32313;48.722;9.362;2022-10-20T07:11:28;32.60;;;25.43;;
46589;SDS011;32313;48.722;9.362;2022-10-20T07:13:56;28.57;;;24.03;;
46589;SDS011;32313;48.722;9.362;2022-10-20T07:16:24;26.73;;;23.20;;
46589;SDS011;32313;48.722;9.362;2022-10-20T07:18:51;27.93;;;22.87;;
46589;SDS011;32313;48.722;9.362;2022-10-20T07:21:18;28.47;;;22.83;;
46589;SDS011;32313;48.722;9.362;2022-10-20T07:23:49;28.90;;;22.13;;
46589;SDS011;32313;48.722;9.362;2022-10-20T07:26:25;25.60;;;21.87;;
46589;SDS011;32313;48.722;9.362;2022-10-20T07:28:53;24.97;;;21.73;;
46589;SDS011;32313;48.722;9.362;2022-10-20T07:33:51;22.63;;;18.67;;
46589;SDS011;32313;48.722;9.362;2022-10-20T07:36:19;21.90;;;18.67;;
46589;SDS011;32313;48.722;9.362;2022-10-20T07:38:48;19.93;;;17.93;;
46589;SDS011;32313;48.722;9.362;2022-10-20T07:41:15;19.03;;;17.07;;
46589;SDS011;32313;48.722;9.362;2022-10-20T07:43:41;22.87;;;18.23;;
46589;SDS011;32313;48.722;9.362;2022-10-20T07:46:08;16.63;;;14.97;;
46589;SDS011;32313;48.722;9.362;2022-10-20T07:48:34;17.27;;;15.53;;
46589;SDS011;32313;48.722;9.362;2022-10-20T07:53:53;14.00;;;12.60;;
46589;SDS011;32313;48.722;9.362;2022-10-20T07:56:20;14.27;;;12.73;;
46589;SDS011;32313;48.722;9.362;2022-10-20T07:58:46;13.17;;;11.87;;
46589;SDS011;32313;48.722;9.362;2022-10-20T08:01:13;12.13;;;11.00;;
46589;SDS011;32313;48.722;9.362;2022-10-20T08:03:38;15.60;;;10.70;;
46589;SDS011;32313;48.722;9.362;2022-10-20T08:06:04;11.63;;;10.43;;
46589;SDS011;32313;48.722;9.362;2022-10-20T08:08:31;10.97;;;9.87;;
46589;SDS011;32313;48.722;9.362;2022-10-20T08:10:57;11.43;;;10.13;;
46589;SDS011;32313;48.722;9.362;2022-10-20T08:13:23;12.80;;;8.50;;
46589;SDS011;32313;48.722;9.362;2022-10-20T08:15:49;8.63;;;7.90;;
46589;SDS011;32313;48.722;9.362;2022-10-20T08:18:15;8.90;;;8.10;;
46589;SDS011;32313;48.722;9.362;2022-10-20T08:20:41;7.73;;;7.03;;
46589;SDS011;32313;48.722;9.362;2022-10-20T08:23:07;7.77;;;6.97;;
46589;SDS011;32313;48.722;9.362;2022-10-20T08:25:32;6.47;;;5.87;;
46589;SDS011;32313;48.722;9.362;2022-10-20T08:27:58;6.30;;;5.70;;
46589;SDS011;32313;48.722;9.362;2022-10-20T08:30:24;8.97;;;5.60;;
46589;SDS011;32313;48.722;9.362;2022-10-20T08:32:50;5.60;;;5.20;;
46589;SDS011;32313;48.722;9.362;2022-10-20T08:35:17;5.43;;;4.93;;
46589;SDS011;32313;48.722;9.362;2022-10-20T08:37:42;5.57;;;4.97;;
46589;SDS011;32313;48.722;9.362;2022-10-20T08:40:08;6.47;;;5.87;;
46589;SDS011;32313;48.722;9.362;2022-10-20T08:42:39;6.70;;;4.90;;
46589;SDS011;32313;48.722;9.362;2022-10-20T08:45:16;5.10;;;4.60;;
46589;SDS011;32313;48.722;9.362;2022-10-20T08:47:45;6.07;;;5.37;;
46589;SDS011;32313;48.722;9.362;2022-10-20T08:50:14;6.17;;;5.33;;
46589;SDS011;32313;48.722;9.362;2022-10-20T08:52:42;5.70;;;5.10;;
46589;SDS011;32313;48.722;9.362;2022-10-20T08:55:17;7.07;;;5.00;;
46589;SDS011;32313;48.722;9.362;2022-10-20T08:57:47;5.77;;;5.00;;
46589;SDS011;32313;48.722;9.362;2022-10-20T09:00:15;7.03;;;4.90;;
46589;SDS011;32313;48.722;9.362;2022-10-20T09:02:43;5.50;;;5.00;;
46589;SDS011;32313;48.722;9.362;2022-10-20T09:05:09;5.40;;;4.90;;
46589;SDS011;32313;48.722;9.362;2022-10-20T09:07:38;5.27;;;4.77;;
46589;SDS011;32313;48.722;9.362;2022-10-20T09:10:17;5.60;;;4.40;;
46589;SDS011;32313;48.722;9.362;2022-10-20T09:12:54;4.97;;;4.53;;
46589;SDS011;32313;48.722;9.362;2022-10-20T09:15:21;4.87;;;4.37;;
46589;SDS011;32313;48.722;9.362;2022-10-20T09:18:05;4.63;;;4.13;;
46589;SDS011;32313;48.722;9.362;2022-10-20T09:20:47;4.80;;;4.37;;
46589;SDS011;32313;48.722;9.362;2022-10-20T09:23:34;5.50;;;4.00;;
46589;SDS011;32313;48.722;9.362;2022-10-20T09:26:02;4.90;;;4.40;;
46589;SDS011;32313;48.722;9.362;2022-10-20T09:28:28;5.80;;;4.13;;
46589;SDS011;32313;48.722;9.362;2022-10-20T09:30:59;6.87;;;3.83;;
46589;SDS011;32313;48.722;9.362;2022-10-20T09:33:32;4.43;;;3.93;;
46589;SDS011;32313;48.722;9.362;2022-10-20T09:36:12;4.40;;;4.00;;
46589;SDS011;32313;48.722;9.362;2022-10-20T09:38:41;4.57;;;4.27;;
46589;SDS011;32313;48.722;9.362;2022-10-20T09:41:11;5.00;;;4.20;;
46589;SDS011;32313;48.722;9.362;2022-10-20T09:43:52;5.47;;;4.13;;
46589;SDS011;32313;48.722;9.362;2022-10-20T09:46:46;4.50;;;4.10;;
46589;SDS011;32313;48.722;9.362;2022-10-20T09:49:28;4.60;;;4.13;;
46589;SDS011;32313;48.722;9.362;2022-10-20T09:51:58;5.90;;;5.10;;
46589;SDS011;32313;48.722;9.362;2022-10-20T09:54:25;5.97;;;4.97;;
46589;SDS011;32313;48.722;9.362;2022-10-20T09:56:52;4.90;;;4.50;;
46589;SDS011;32313;48.722;9.362;2022-10-20T09:59:31;4.73;;;4.10;;
46589;SDS011;32313;48.722;9.362;2022-10-20T10:02:46;3.73;;;3.30;;
46589;SDS011;32313;48.722;9.362;2022-10-20T10:04:47;5.60;;;4.20;;
46589;SDS011;32313;48.722;9.362;2022-10-20T10:10:00;4.07;;;3.77;;
46589;SDS011;32313;48.722;9.362;2022-10-20T10:12:29;4.43;;;4.03;;
46589;SDS011;32313;48.722;9.362;2022-10-20T10:17:35;4.13;;;3.77;;
46589;SDS011;32313;48.722;9.362;2022-10-20T10:20:31;4.30;;;4.00;;
46589;SDS011;32313;48.722;9.362;2022-10-20T10:23:15;3.73;;;3.37;;
46589;SDS011;32313;48.722;9.362;2022-10-20T10:25:45;5.20;;;4.70;;
46589;SDS011;32313;48.722;9.362;2022-10-20T10:33:48;4.03;;;3.60;;
46589;SDS011;32313;48.722;9.362;2022-10-20T10:38:51;4.00;;;3.43;;
46589;SDS011;32313;48.722;9.362;2022-10-20T10:44:09;4.23;;;3.93;;
46589;SDS011;32313;48.722;9.362;2022-10-20T10:56:22;5.97;;;4.23;;
46589;SDS011;32313;48.722;9.362;2022-10-20T10:59:27;5.67;;;4.20;;
46589;SDS011;32313;48.722;9.362;2022-10-20T11:10:09;5.33;;;4.07;;
46589;SDS011;32313;48.722;9.362;2022-10-20T11:28:45;5.07;;;4.57;;
46589;SDS011;32313;48.722;9.362;2022-10-20T11:33:47;5.03;;;4.20;;
46589;SDS011;32313;48.722;9.362;2022-10-20T11:36:20;4.97;;;4.43;;
46589;SDS011;32313;48.722;9.362;2022-10-20T11:38:53;5.10;;;4.63;;
46589;SDS011;32313;48.722;9.362;2022-10-20T11:41:25;7.10;;;4.63;;
46589;SDS011;32313;48.722;9.362;2022-10-20T11:44:06;6.33;;;3.90;;
46589;SDS011;32313;48.722;9.362;2022-10-20T11:46:45;4.80;;;4.40;;
46589;SDS011;32313;48.722;9.362;2022-10-20T11:49:12;4.93;;;4.47;;
46589;SDS011;32313;48.722;9.362;2022-10-20T12:19:18;7.20;;;4.57;;
46589;SDS011;32313;48.722;9.362;2022-10-20T12:21:55;8.03;;;4.67;;
46589;SDS011;32313;48.722;9.362;2022-10-20T12:27:13;5.40;;;4.90;;
46589;SDS011;32313;48.722;9.362;2022-10-20T12:32:24;5.23;;;4.73;;
46589;SDS011;32313;48.722;9.362;2022-10-20T12:37:59;6.57;;;5.80;;
46589;SDS011;32313;48.722;9.362;2022-10-20T12:40:31;5.67;;;5.07;;
46589;SDS011;32313;48.722;9.362;2022-10-20T12:43:04;5.87;;;5.17;;
46589;SDS011;32313;48.722;9.362;2022-10-20T12:45:45;5.90;;;5.30;;
46589;SDS011;32313;48.722;9.362;2022-10-20T12:48:18;7.70;;;5.60;;
46589;SDS011;32313;48.722;9.362;2022-10-20T12:50:46;5.70;;;5.20;;
46589;SDS011;32313;48.722;9.362;2022-10-20T12:55:40;4.63;;;4.23;;
46589;SDS011;32313;48.722;9.362;2022-10-20T13:03:01;5.77;;;5.17;;
46589;SDS011;32313;48.722;9.362;2022-10-20T13:05:56;6.23;;;5.40;;
46589;SDS011;32313;48.722;9.362;2022-10-20T13:08:24;9.97;;;5.40;;
46589;SDS011;32313;48.722;9.362;2022-10-20T13:10:54;5.77;;;4.97;;
46589;SDS011;32313;48.722;9.362;2022-10-20T13:15:49;5.60;;;5.10;;
46589;SDS011;32313;48.722;9.362;2022-10-20T13:21:00;7.10;;;5.20;;
46589;SDS011;32313;48.722;9.362;2022-10-20T13:28:46;7.73;;;5.07;;
46589;SDS011;32313;48.722;9.362;2022-10-20T13:39:33;6.07;;;4.90;;
46589;SDS011;32313;48.722;9.362;2022-10-20T13:50:29;5.43;;;4.53;;
46589;SDS011;32313;48.722;9.362;2022-10-20T13:53:00;4.83;;;4.43;;
46589;SDS011;32313;48.722;9.362;2022-10-20T13:55:29;5.37;;;4.70;;
46589;SDS011;32313;48.722;9.362;2022-10-20T13:58:21;6.77;;;5.17;;
46589;SDS011;32313;48.722;9.362;2022-10-20T14:00:58;9.00;;;4.47;;
46589;SDS011;32313;48.722;9.362;2022-10-20T14:03:40;8.07;;;5.90;;
46589;SDS011;32313;48.722;9.362;2022-10-20T14:08:56;6.03;;;5.43;;
46589;SDS011;32313;48.722;9.362;2022-10-20T14:11:23;8.47;;;5.93;;
46589;SDS011;32313;48.722;9.362;2022-10-20T14:13:53;9.70;;;6.00;;
46589;SDS011;32313;48.722;9.362;2022-10-20T14:16:21;5.93;;;5.10;;
46589;SDS011;32313;48.722;9.362;2022-10-20T14:19:00;8.53;;;5.83;;
46589;SDS011;32313;48.722;9.362;2022-10-20T14:24:05;11.30;;;7.17;;
46589;SDS011;32313;48.722;9.362;2022-10-20T14:26:40;7.07;;;5.93;;
46589;SDS011;32313;48.722;9.362;2022-10-20T14:29:09;8.37;;;6.00;;
46589;SDS011;32313;48.722;9.362;2022-10-20T14:31:38;9.70;;;6.80;;
46589;SDS011;32313;48.722;9.362;2022-10-20T14:34:04;10.17;;;7.03;;
46589;SDS011;32313;48.722;9.362;2022-10-20T14:36:30;11.17;;;7.53;;
46589;SDS011;32313;48.722;9.362;2022-10-20T14:38:57;11.80;;;8.10;;
46589;SDS011;32313;48.722;9.362;2022-10-20T14:41:29;9.37;;;8.30;;
46589;SDS011;32313;48.722;9.362;2022-10-20T14:43:58;12.00;;;8.53;;
46589;SDS011;32313;48.722;9.362;2022-10-20T14:49:03;11.20;;;8.97;;
46589;SDS011;32313;48.722;9.362;2022-10-20T14:51:56;9.80;;;8.80;;
46589;SDS011;32313;48.722;9.362;2022-10-20T14:59:25;11.60;;;8.93;;
46589;SDS011;32313;48.722;9.362;2022-10-20T15:02:07;12.37;;;9.23;;
46589;SDS011;32313;48.722;9.362;2022-10-20T15:04:38;11.80;;;9.43;;
46589;SDS011;32313;48.722;9.362;2022-10-20T15:09:41;14.17;;;11.03;;
46589;SDS011;32313;48.722;9.362;2022-10-20T15:12:14;12.43;;;10.17;;
46589;SDS011;32313;48.722;9.362;2022-10-20T15:14:48;12.70;;;9.77;;
46589;SDS011;32313;48.722;9.362;2022-10-20T15:17:29;14.90;;;10.63;;
46589;SDS011;32313;48.722;9.362;2022-10-20T15:28:51;14.03;;;11.33;;
46589;SDS011;32313;48.722;9.362;2022-10-20T15:30:58;12.30;;;9.57;;
46589;SDS011;32313;48.722;9.362;2022-10-20T15:33:25;15.87;;;12.30;;
46589;SDS011;32313;48.722;9.362;2022-10-20T15:35:52;16.30;;;11.97;;
46589;SDS011;32313;48.722;9.362;2022-10-20T15:38:18;13.97;;;11.63;;
46589;SDS011;32313;48.722;9.362;2022-10-20T15:40:43;13.17;;;11.40;;
46589;SDS011;32313;48.722;9.362;2022-10-20T15:43:16;14.27;;;11.73;;
46589;SDS011;32313;48.722;9.362;2022-10-20T15:45:44;14.47;;;11.20;;
46589;SDS011;32313;48.722;9.362;2022-10-20T15:48:17;13.90;;;12.50;;
46589;SDS011;32313;48.722;9.362;2022-10-20T15:50:43;17.70;;;13.97;;
46589;SDS011;32313;48.722;9.362;2022-10-20T15:53:09;14.07;;;12.53;;
46589;SDS011;32313;48.722;9.362;2022-10-20T15:55:36;17.37;;;12.93;;
46589;SDS011;32313;48.722;9.362;2022-10-20T15:58:05;17.50;;;13.70;;
46589;SDS011;32313;48.722;9.362;2022-10-20T16:00:31;15.17;;;13.13;;
46589;SDS011;32313;48.722;9.362;2022-10-20T16:02:57;17.30;;;13.43;;
46589;SDS011;32313;48.722;9.362;2022-10-20T16:05:23;15.63;;;13.17;;
46589;SDS011;32313;48.722;9.362;2022-10-20T16:07:49;19.27;;;13.83;;
46589;SDS011;32313;48.722;9.362;2022-10-20T16:10:17;22.33;;;14.57;;
46589;SDS011;32313;48.722;9.362;2022-10-20T16:12:43;20.23;;;14.37;;
46589;SDS011;32313;48.722;9.362;2022-10-20T16:15:09;19.63;;;13.70;;
46589;SDS011;32313;48.722;9.362;2022-10-20T16:17:35;16.50;;;13.80;;
46589;SDS011;32313;48.722;9.362;2022-10-20T16:20:02;18.73;;;14.50;;
46589;SDS011;32313;48.722;9.362;2022-10-20T16:22:29;16.50;;;13.77;;
46589;SDS011;32313;48.722;9.362;2022-10-20T16:24:55;19.93;;;14.80;;
46589;SDS011;32313;48.722;9.362;2022-10-20T16:27:21;22.57;;;15.13;;
46589;SDS011;32313;48.722;9.362;2022-10-20T16:29:48;20.20;;;13.97;;
46589;SDS011;32313;48.722;9.362;2022-10-20T16:32:14;19.03;;;16.20;;
46589;SDS011;32313;48.722;9.362;2022-10-20T16:34:40;21.03;;;15.63;;
46589;SDS011;32313;48.722;9.362;2022-10-20T16:37:06;18.23;;;14.67;;
46589;SDS011;32313;48.722;9.362;2022-10-20T16:39:32;19.43;;;14.90;;
46589;SDS011;32313;48.722;9.362;2022-10-20T16:41:58;20.73;;;15.77;;
46589;SDS011;32313;48.722;9.362;2022-10-20T16:44:23;22.80;;;15.37;;
46589;SDS011;32313;48.722;9.362;2022-10-20T16:50:02;15.60;;;14.00;;
46589;SDS011;32313;48.722;9.362;2022-10-20T16:52:28;24.70;;;16.37;;
46589;SDS011;32313;48.722;9.362;2022-10-20T16:54:54;22.60;;;15.17;;
46589;SDS011;32313;48.722;9.362;2022-10-20T16:57:19;19.23;;;15.40;;
46589;SDS011;32313;48.722;9.362;2022-10-20T16:59:45;20.60;;;15.60;;
46589;SDS011;32313;48.722;9.362;2022-10-20T17:02:14;18.63;;;14.23;;
46589;SDS011;32313;48.722;9.362;2022-10-20T17:04:42;18.90;;;15.53;;
46589;SDS011;32313;48.722;9.362;2022-10-20T17:07:11;17.67;;;14.90;;
46589;SDS011;32313;48.722;9.362;2022-10-20T17:09:37;20.63;;;13.87;;
46589;SDS011;32313;48.722;9.362;2022-10-20T17:12:02;18.53;;;14.30;;
46589;SDS011;32313;48.722;9.362;2022-10-20T17:14:28;18.47;;;14.30;;
46589;SDS011;32313;48.722;9.362;2022-10-20T17:16:54;22.63;;;15.93;;
46589;SDS011;32313;48.722;9.362;2022-10-20T17:19:20;21.03;;;14.57;;
46589;SDS011;32313;48.722;9.362;2022-10-20T17:21:46;20.47;;;14.50;;
46589;SDS011;32313;48.722;9.362;2022-10-20T17:24:14;19.33;;;14.47;;
46589;SDS011;32313;48.722;9.362;2022-10-20T17:26:40;21.07;;;14.97;;
46589;SDS011;32313;48.722;9.362;2022-10-20T17:29:07;20.30;;;14.80;;
46589;SDS011;32313;48.722;9.362;2022-10-20T17:31:33;22.47;;;16.17;;